Terminal Aerodrome Forecast
Issued by NWS

Current Version | Previous Version | Graphics & Text | Print | Product List | Glossary On
Versions: 1 2 3 4 5 6 7 8 9 10 11 12 13 14 15 16 17 18 19 20 21 22 23 24 25 26
000
FTUS41 KILN 040500 RRA
TAFLCK
TAF
KLCK 040548Z 0406/0506 30005KT 3SM -RA BR SCT008 OVC015
      TEMPO 0406/0410 BKN008
     FM041000 31004KT 4SM -RA BR BKN007 OVC015
     FM041800 32007KT P6SM BKN012 OVC030
     FM042100 32011KT 3SM -SN OVC010
     FM050400 33009KT P6SM SCT018 OVC120=

USA.gov is the U.S. government's official web portal to all federal, state and local government web resources and services.